sensor_id;sensor_type;location;lat;lon;timestamp;pressure;altitude;pressure_sealevel;temperature;humidity
68986;BME280;56035;37.534;-122.308;2023-02-16T00:00:32;102155.16;;;11.15;32.51
68986;BME280;56035;37.534;-122.308;2023-02-16T00:02:58;102147.97;;;11.20;31.07
68986;BME280;56035;37.534;-122.308;2023-02-16T00:05:25;102147.97;;;11.27;30.82
68986;BME280;56035;37.534;-122.308;2023-02-16T00:07:53;102141.59;;;11.20;33.18
68986;BME280;56035;37.534;-122.308;2023-02-16T00:10:20;102135.66;;;11.23;31.98
68986;BME280;56035;37.534;-122.308;2023-02-16T00:12:46;102133.09;;;11.15;32.70
68986;BME280;56035;37.534;-122.308;2023-02-16T00:15:31;102137.34;;;11.17;30.81
68986;BME280;56035;37.534;-122.308;2023-02-16T00:17:59;102139.50;;;11.15;32.19
68986;BME280;56035;37.534;-122.308;2023-02-16T00:20:27;102145.00;;;11.15;33.68
68986;BME280;56035;37.534;-122.308;2023-02-16T00:22:57;102145.84;;;11.09;33.74
68986;BME280;56035;37.534;-122.308;2023-02-16T00:25:23;102145.84;;;11.02;33.56
68986;BME280;56035;37.534;-122.308;2023-02-16T00:27:49;102148.59;;;10.96;34.40
68986;BME280;56035;37.534;-122.308;2023-02-16T00:30:20;102149.03;;;10.93;35.56
68986;BME280;56035;37.534;-122.308;2023-02-16T00:32:47;102151.38;;;11.09;33.43
68986;BME280;56035;37.534;-122.308;2023-02-16T00:35:17;102142.03;;;11.04;33.89
68986;BME280;56035;37.534;-122.308;2023-02-16T00:37:47;102148.59;;;10.96;35.50
68986;BME280;56035;37.534;-122.308;2023-02-16T00:40:15;102151.56;;;10.88;36.93
68986;BME280;56035;37.534;-122.308;2023-02-16T00:42:45;102158.13;;;10.93;33.57
68986;BME280;56035;37.534;-122.308;2023-02-16T00:45:18;102159.63;;;10.83;33.63
68986;BME280;56035;37.534;-122.308;2023-02-16T00:47:50;102166.16;;;10.75;34.15
68986;BME280;56035;37.534;-122.308;2023-02-16T00:50:18;102164.63;;;10.59;37.66
68986;BME280;56035;37.534;-122.308;2023-02-16T00:52:46;102163.34;;;10.48;37.25
68986;BME280;56035;37.534;-122.308;2023-02-16T00:55:18;102165.22;;;10.35;39.58
68986;BME280;56035;37.534;-122.308;2023-02-16T00:57:54;102170.22;;;10.18;39.97
68986;BME280;56035;37.534;-122.308;2023-02-16T01:00:33;102168.94;;;10.14;39.16
68986;BME280;56035;37.534;-122.308;2023-02-16T01:03:04;102169.47;;;9.96;42.86
68986;BME280;56035;37.534;-122.308;2023-02-16T01:05:31;102168.75;;;9.87;42.02
68986;BME280;56035;37.534;-122.308;2023-02-16T01:07:57;102159.41;;;9.75;42.42
68986;BME280;56035;37.534;-122.308;2023-02-16T01:10:41;102162.25;;;9.60;43.96
68986;BME280;56035;37.534;-122.308;2023-02-16T01:13:27;102156.66;;;9.47;44.79
68986;BME280;56035;37.534;-122.308;2023-02-16T01:15:54;102165.47;;;9.35;44.26
68986;BME280;56035;37.534;-122.308;2023-02-16T01:18:21;102165.84;;;9.26;45.63
68986;BME280;56035;37.534;-122.308;2023-02-16T01:20:48;102171.47;;;9.18;45.52
68986;BME280;56035;37.534;-122.308;2023-02-16T01:23:14;102167.34;;;9.07;45.04
68986;BME280;56035;37.534;-122.308;2023-02-16T01:25:41;102167.28;;;9.00;45.58
68986;BME280;56035;37.534;-122.308;2023-02-16T01:28:22;102165.06;;;8.89;45.43
68986;BME280;56035;37.534;-122.308;2023-02-16T01:30:50;102176.78;;;8.76;45.99
68986;BME280;56035;37.534;-122.308;2023-02-16T01:33:17;102174.75;;;8.63;46.36
68986;BME280;56035;37.534;-122.308;2023-02-16T01:35:44;102182.84;;;8.50;46.38
68986;BME280;56035;37.534;-122.308;2023-02-16T01:38:28;102178.03;;;8.37;47.75
68986;BME280;56035;37.534;-122.308;2023-02-16T01:41:19;102179.28;;;8.20;48.42
68986;BME280;56035;37.534;-122.308;2023-02-16T01:43:54;102182.53;;;8.09;49.62
68986;BME280;56035;37.534;-122.308;2023-02-16T01:46:42;102179.97;;;7.92;49.87
68986;BME280;56035;37.534;-122.308;2023-02-16T01:49:14;102179.97;;;7.78;50.82
68986;BME280;56035;37.534;-122.308;2023-02-16T01:52:17;102183.19;;;7.66;51.93
68986;BME280;56035;37.534;-122.308;2023-02-16T01:57:45;102198.06;;;7.34;53.40
68986;BME280;56035;37.534;-122.308;2023-02-16T02:03:00;102191.31;;;7.07;54.12
68986;BME280;56035;37.534;-122.308;2023-02-16T02:05:47;102193.13;;;6.92;54.41
68986;BME280;56035;37.534;-122.308;2023-02-16T02:08:30;102189.97;;;6.80;54.75
68986;BME280;56035;37.534;-122.308;2023-02-16T02:13:57;102204.31;;;6.59;56.48
68986;BME280;56035;37.534;-122.308;2023-02-16T02:16:27;102200.75;;;6.50;56.96
68986;BME280;56035;37.534;-122.308;2023-02-16T02:18:54;102199.66;;;6.37;57.38
68986;BME280;56035;37.534;-122.308;2023-02-16T02:30:27;102210.25;;;6.00;62.04
68986;BME280;56035;37.534;-122.308;2023-02-16T02:46:19;102218.75;;;5.50;65.98
68986;BME280;56035;37.534;-122.308;2023-02-16T02:48:49;102213.78;;;5.45;66.52
68986;BME280;56035;37.534;-122.308;2023-02-16T02:51:16;102220.81;;;5.39;66.46
68986;BME280;56035;37.534;-122.308;2023-02-16T02:54:20;102225.56;;;5.29;67.08
68986;BME280;56035;37.534;-122.308;2023-02-16T02:57:33;102225.59;;;5.21;68.41
68986;BME280;56035;37.534;-122.308;2023-02-16T03:00:29;102220.81;;;5.15;67.65
68986;BME280;56035;37.534;-122.308;2023-02-16T03:05:44;102223.34;;;4.92;68.40
68986;BME280;56035;37.534;-122.308;2023-02-16T03:08:15;102227.94;;;4.83;71.16
68986;BME280;56035;37.534;-122.308;2023-02-16T03:10:55;102230.34;;;4.78;72.42
68986;BME280;56035;37.534;-122.308;2023-02-16T03:13:52;102228.44;;;4.70;73.42
68986;BME280;56035;37.534;-122.308;2023-02-16T03:16:44;102232.03;;;4.71;74.29
68986;BME280;56035;37.534;-122.308;2023-02-16T03:19:13;102230.97;;;4.64;75.24
68986;BME280;56035;37.534;-122.308;2023-02-16T03:22:00;102227.91;;;4.59;75.36
68986;BME280;56035;37.534;-122.308;2023-02-16T03:24:45;102234.53;;;4.48;77.55
68986;BME280;56035;37.534;-122.308;2023-02-16T03:27:34;102238.09;;;4.40;79.22
68986;BME280;56035;37.534;-122.308;2023-02-16T03:30:20;102239.44;;;4.36;81.30
68986;BME280;56035;37.534;-122.308;2023-02-16T03:32:47;102248.47;;;4.37;82.73
68986;BME280;56035;37.534;-122.308;2023-02-16T03:35:14;102250.69;;;4.33;84.66
68986;BME280;56035;37.534;-122.308;2023-02-16T03:37:41;102244.19;;;4.34;85.67
68986;BME280;56035;37.534;-122.308;2023-02-16T03:40:11;102250.88;;;4.32;85.48
68986;BME280;56035;37.534;-122.308;2023-02-16T03:42:59;102244.19;;;4.26;84.65
68986;BME280;56035;37.534;-122.308;2023-02-16T03:45:26;102240.72;;;4.16;84.68
68986;BME280;56035;37.534;-122.308;2023-02-16T03:47:53;102240.53;;;4.09;87.20
68986;BME280;56035;37.534;-122.308;2023-02-16T03:50:19;102252.63;;;4.07;87.49
68986;BME280;56035;37.534;-122.308;2023-02-16T03:52:46;102249.50;;;4.02;89.50
68986;BME280;56035;37.534;-122.308;2023-02-16T03:55:13;102252.41;;;4.00;88.39
68986;BME280;56035;37.534;-122.308;2023-02-16T03:57:39;102247.09;;;3.98;88.38
68986;BME280;56035;37.534;-122.308;2023-02-16T04:00:06;102252.88;;;3.95;87.45
68986;BME280;56035;37.534;-122.308;2023-02-16T04:02:33;102251.50;;;3.91;88.54
68986;BME280;56035;37.534;-122.308;2023-02-16T04:04:59;102250.44;;;3.84;88.84
68986;BME280;56035;37.534;-122.308;2023-02-16T04:07:25;102255.50;;;3.79;89.16
68986;BME280;56035;37.534;-122.308;2023-02-16T04:09:51;102252.13;;;3.77;89.24
68986;BME280;56035;37.534;-122.308;2023-02-16T04:12:18;102259.59;;;3.75;89.41
68986;BME280;56035;37.534;-122.308;2023-02-16T04:15:13;102253.78;;;3.70;88.49
68986;BME280;56035;37.534;-122.308;2023-02-16T04:17:39;102261.44;;;3.66;88.07
68986;BME280;56035;37.534;-122.308;2023-02-16T04:20:09;102251.16;;;3.60;87.61
68986;BME280;56035;37.534;-122.308;2023-02-16T04:22:36;102249.06;;;3.54;88.49
68986;BME280;56035;37.534;-122.308;2023-02-16T04:25:03;102257.88;;;3.48;88.45
68986;BME280;56035;37.534;-122.308;2023-02-16T04:27:29;102256.31;;;3.45;89.21
68986;BME280;56035;37.534;-122.308;2023-02-16T04:29:55;102252.53;;;3.38;90.49
68986;BME280;56035;37.534;-122.308;2023-02-16T04:32:22;102256.28;;;3.37;91.00
68986;BME280;56035;37.534;-122.308;2023-02-16T04:34:48;102260.31;;;3.33;90.69
68986;BME280;56035;37.534;-122.308;2023-02-16T04:37:14;102263.69;;;3.27;89.76
68986;BME280;56035;37.534;-122.308;2023-02-16T04:39:40;102262.25;;;3.23;91.14
68986;BME280;56035;37.534;-122.308;2023-02-16T04:42:06;102260.03;;;3.18;90.38
68986;BME280;56035;37.534;-122.308;2023-02-16T04:44:33;102255.38;;;3.11;90.97
68986;BME280;56035;37.534;-122.308;2023-02-16T04:46:59;102267.25;;;3.10;90.93
68986;BME280;56035;37.534;-122.308;2023-02-16T04:49:25;102274.03;;;3.05;91.09
68986;BME280;56035;37.534;-122.308;2023-02-16T04:51:51;102279.63;;;3.04;91.20
68986;BME280;56035;37.534;-122.308;2023-02-16T04:54:18;102283.00;;;2.98;90.14
68986;BME280;56035;37.534;-122.308;2023-02-16T04:56:45;102282.59;;;2.93;89.24
68986;BME280;56035;37.534;-122.308;2023-02-16T04:59:12;102273.56;;;2.92;91.14
68986;BME280;56035;37.534;-122.308;2023-02-16T05:01:38;102284.47;;;2.92;92.84
68986;BME280;56035;37.534;-122.308;2023-02-16T05:04:04;102290.50;;;2.86;92.80
68986;BME280;56035;37.534;-122.308;2023-02-16T05:06:30;102290.81;;;2.83;91.71
68986;BME280;56035;37.534;-122.308;2023-02-16T05:08:56;102304.06;;;2.78;90.71
68986;BME280;56035;37.534;-122.308;2023-02-16T05:11:23;102300.63;;;2.76;90.77
68986;BME280;56035;37.534;-122.308;2023-02-16T05:14:20;102305.66;;;2.71;93.13
68986;BME280;56035;37.534;-122.308;2023-02-16T05:17:05;102304.56;;;2.64;91.18
68986;BME280;56035;37.534;-122.308;2023-02-16T05:19:31;102301.28;;;2.60;91.32
68986;BME280;56035;37.534;-122.308;2023-02-16T05:21:57;102310.91;;;2.54;90.15
68986;BME280;56035;37.534;-122.308;2023-02-16T05:24:23;102308.34;;;2.53;91.65
68986;BME280;56035;37.534;-122.308;2023-02-16T05:26:50;102315.66;;;2.52;91.06
68986;BME280;56035;37.534;-122.308;2023-02-16T05:29:16;102314.22;;;2.48;91.23
68986;BME280;56035;37.534;-122.308;2023-02-16T05:31:42;102316.56;;;2.43;91.96
68986;BME280;56035;37.534;-122.308;2023-02-16T05:34:08;102325.00;;;2.40;91.27
68986;BME280;56035;37.534;-122.308;2023-02-16T05:36:35;102322.91;;;2.34;91.91
68986;BME280;56035;37.534;-122.308;2023-02-16T05:39:01;102325.47;;;2.36;93.04
68986;BME280;56035;37.534;-122.308;2023-02-16T05:41:47;102331.06;;;2.34;91.01
68986;BME280;56035;37.534;-122.308;2023-02-16T05:44:15;102327.47;;;2.33;90.91
68986;BME280;56035;37.534;-122.308;2023-02-16T05:46:42;102324.03;;;2.31;90.25
68986;BME280;56035;37.534;-122.308;2023-02-16T05:49:09;102329.78;;;2.28;91.34
68986;BME280;56035;37.534;-122.308;2023-02-16T05:51:36;102331.09;;;2.24;91.19
68986;BME280;56035;37.534;-122.308;2023-02-16T05:54:03;102332.97;;;2.24;90.81
68986;BME280;56035;37.534;-122.308;2023-02-16T05:56:29;102327.09;;;2.19;91.42
68986;BME280;56035;37.534;-122.308;2023-02-16T05:58:56;102322.97;;;2.15;91.44
68986;BME280;56035;37.534;-122.308;2023-02-16T06:01:23;102323.25;;;2.11;91.11
68986;BME280;56035;37.534;-122.308;2023-02-16T06:03:50;102324.56;;;2.07;90.39
68986;BME280;56035;37.534;-122.308;2023-02-16T06:06:16;102321.28;;;2.04;91.89
68986;BME280;56035;37.534;-122.308;2023-02-16T06:08:43;102320.75;;;2.00;91.58
68986;BME280;56035;37.534;-122.308;2023-02-16T06:11:09;102319.34;;;1.96;89.84
68986;BME280;56035;37.534;-122.308;2023-02-16T06:13:54;102325.47;;;1.88;89.84
68986;BME280;56035;37.534;-122.308;2023-02-16T06:16:25;102315.91;;;1.84;90.48
68986;BME280;56035;37.534;-122.308;2023-02-16T06:18:52;102319.66;;;1.83;92.14
68986;BME280;56035;37.534;-122.308;2023-02-16T06:21:18;102309.63;;;1.84;91.62
68986;BME280;56035;37.534;-122.308;2023-02-16T06:23:44;102309.91;;;1.81;90.92
68986;BME280;56035;37.534;-122.308;2023-02-16T06:26:10;102311.06;;;1.78;90.48
68986;BME280;56035;37.534;-122.308;2023-02-16T06:28:36;102310.22;;;1.78;91.18
68986;BME280;56035;37.534;-122.308;2023-02-16T06:31:03;102299.63;;;1.75;92.21
68986;BME280;56035;37.534;-122.308;2023-02-16T06:33:29;102298.63;;;1.76;91.88
68986;BME280;56035;37.534;-122.308;2023-02-16T06:35:55;102287.34;;;1.71;91.74
68986;BME280;56035;37.534;-122.308;2023-02-16T06:38:21;102295.91;;;1.76;nan
68986;BME280;56035;37.534;-122.308;2023-02-16T06:40:51;102296.19;;;1.73;92.17
68986;BME280;56035;37.534;-122.308;2023-02-16T06:43:17;102291.34;;;1.67;92.69
68986;BME280;56035;37.534;-122.308;2023-02-16T06:45:43;102289.94;;;1.62;93.04
68986;BME280;56035;37.534;-122.308;2023-02-16T06:48:10;102295.38;;;1.62;94.31
68986;BME280;56035;37.534;-122.308;2023-02-16T06:50:36;102296.50;;;1.60;95.73
68986;BME280;56035;37.534;-122.308;2023-02-16T06:53:02;102294.06;;;1.57;95.01
68986;BME280;56035;37.534;-122.308;2023-02-16T06:55:28;102306.97;;;1.55;95.81
68986;BME280;56035;37.534;-122.308;2023-02-16T06:57:59;102302.69;;;1.52;97.09
68986;BME280;56035;37.534;-122.308;2023-02-16T07:00:25;102302.28;;;1.47;96.40
68986;BME280;56035;37.534;-122.308;2023-02-16T07:02:52;102310.72;;;1.44;96.49
68986;BME280;56035;37.534;-122.308;2023-02-16T07:05:18;102310.09;;;1.40;96.15
68986;BME280;56035;37.534;-122.308;2023-02-16T07:07:44;102316.25;;;1.43;96.67
68986;BME280;56035;37.534;-122.308;2023-02-16T07:10:10;102314.84;;;1.38;95.87
68986;BME280;56035;37.534;-122.308;2023-02-16T07:12:37;102315.97;;;1.36;95.09
68986;BME280;56035;37.534;-122.308;2023-02-16T07:15:03;102329.16;;;1.31;94.76
68986;BME280;56035;37.534;-122.308;2023-02-16T07:17:30;102326.56;;;1.29;94.56
68986;BME280;56035;37.534;-122.308;2023-02-16T07:19:56;102323.28;;;1.26;95.79
68986;BME280;56035;37.534;-122.308;2023-02-16T07:22:22;102330.00;;;1.22;97.06
68986;BME280;56035;37.534;-122.308;2023-02-16T07:24:49;102327.13;;;1.13;97.85
68986;BME280;56035;37.534;-122.308;2023-02-16T07:27:15;102329.44;;;1.08;98.09
68986;BME280;56035;37.534;-122.308;2023-02-16T07:29:41;102318.00;;;1.05;99.03
68986;BME280;56035;37.534;-122.308;2023-02-16T07:32:09;102326.53;;;1.00;100.00
68986;BME280;56035;37.534;-122.308;2023-02-16T07:34:35;102334.97;;;0.97;100.00
68986;BME280;56035;37.534;-122.308;2023-02-16T07:37:01;102328.13;;;0.93;100.00
68986;BME280;56035;37.534;-122.308;2023-02-16T07:39:27;102323.13;;;0.88;100.00
68986;BME280;56035;37.534;-122.308;2023-02-16T07:41:55;102329.69;;;0.86;100.00
68986;BME280;56035;37.534;-122.308;2023-02-16T07:44:21;102331.81;;;0.82;100.00
68986;BME280;56035;37.534;-122.308;2023-02-16T07:46:47;102324.53;;;0.83;100.00
68986;BME280;56035;37.534;-122.308;2023-02-16T07:49:14;102332.94;;;0.80;100.00
68986;BME280;56035;37.534;-122.308;2023-02-16T07:51:40;102321.66;;;0.75;100.00
68986;BME280;56035;37.534;-122.308;2023-02-16T07:54:06;102313.09;;;0.69;100.00
68986;BME280;56035;37.534;-122.308;2023-02-16T07:56:33;102320.38;;;0.69;100.00
68986;BME280;56035;37.534;-122.308;2023-02-16T07:59:00;102320.78;;;0.64;100.00
68986;BME280;56035;37.534;-122.308;2023-02-16T08:01:27;102306.91;;;0.58;100.00
68986;BME280;56035;37.534;-122.308;2023-02-16T08:03:54;102315.19;;;0.56;100.00
68986;BME280;56035;37.534;-122.308;2023-02-16T08:06:21;102313.34;;;0.57;100.00
68986;BME280;56035;37.534;-122.308;2023-02-16T08:08:48;102310.91;;;0.54;100.00
68986;BME280;56035;37.534;-122.308;2023-02-16T08:11:16;102314.63;;;0.53;100.00
68986;BME280;56035;37.534;-122.308;2023-02-16T08:13:43;102304.31;;;0.46;100.00
68986;BME280;56035;37.534;-122.308;2023-02-16T08:16:15;102308.16;;;0.44;100.00
68986;BME280;56035;37.534;-122.308;2023-02-16T08:18:41;102308.91;;;0.46;100.00
68986;BME280;56035;37.534;-122.308;2023-02-16T08:21:15;102303.75;;;0.43;100.00
68986;BME280;56035;37.534;-122.308;2023-02-16T08:23:43;102304.88;;;0.40;100.00
68986;BME280;56035;37.534;-122.308;2023-02-16T08:26:16;102300.31;;;0.41;100.00
68986;BME280;56035;37.534;-122.308;2023-02-16T08:28:44;102308.44;;;0.41;100.00
68986;BME280;56035;37.534;-122.308;2023-02-16T08:31:16;102315.13;;;0.37;100.00
68986;BME280;56035;37.534;-122.308;2023-02-16T08:33:43;102315.41;;;0.34;100.00
68986;BME280;56035;37.534;-122.308;2023-02-16T08:36:21;102298.97;;;0.26;100.00
68986;BME280;56035;37.534;-122.308;2023-02-16T08:38:49;102304.66;;;0.22;100.00
68986;BME280;56035;37.534;-122.308;2023-02-16T08:41:18;102305.53;;;0.23;100.00
68986;BME280;56035;37.534;-122.308;2023-02-16T08:43:45;102299.50;;;0.19;100.00
68986;BME280;56035;37.534;-122.308;2023-02-16T08:46:12;102302.94;;;0.21;100.00
68986;BME280;56035;37.534;-122.308;2023-02-16T08:48:38;102295.22;;;0.17;100.00
68986;BME280;56035;37.534;-122.308;2023-02-16T08:51:06;102299.81;;;0.16;100.00
68986;BME280;56035;37.534;-122.308;2023-02-16T08:53:33;102297.38;;;0.13;100.00
68986;BME280;56035;37.534;-122.308;2023-02-16T08:56:01;102296.63;;;0.11;100.00
68986;BME280;56035;37.534;-122.308;2023-02-16T08:58:29;102301.47;;;0.08;100.00
68986;BME280;56035;37.534;-122.308;2023-02-16T09:00:56;102299.59;;;0.08;100.00
68986;BME280;56035;37.534;-122.308;2023-02-16T09:03:23;102296.31;;;0.05;100.00
68986;BME280;56035;37.534;-122.308;2023-02-16T09:05:49;102302.00;;;0.02;100.00
68986;BME280;56035;37.534;-122.308;2023-02-16T09:08:18;102303.00;;;0.01;100.00
68986;BME280;56035;37.534;-122.308;2023-02-16T09:10:44;102298.44;;;0.01;100.00
68986;BME280;56035;37.534;-122.308;2023-02-16T09:13:11;102291.69;;;-0.05;100.00
68986;BME280;56035;37.534;-122.308;2023-02-16T09:15:41;102299.44;;;0.00;100.00
68986;BME280;56035;37.534;-122.308;2023-02-16T09:18:08;102300.41;;;-0.01;100.00
68986;BME280;56035;37.534;-122.308;2023-02-16T09:20:39;102300.56;;;-0.03;100.00
68986;BME280;56035;37.534;-122.308;2023-02-16T09:23:07;102297.97;;;-0.04;100.00
68986;BME280;56035;37.534;-122.308;2023-02-16T09:25:36;102298.81;;;-0.04;100.00
68986;BME280;56035;37.534;-122.308;2023-02-16T09:28:05;102296.28;;;-0.05;100.00
68986;BME280;56035;37.534;-122.308;2023-02-16T09:30:31;102298.50;;;-0.10;100.00
68986;BME280;56035;37.534;-122.308;2023-02-16T09:32:59;102297.66;;;-0.11;100.00
68986;BME280;56035;37.534;-122.308;2023-02-16T09:35:25;102293.97;;;-0.10;100.00
68986;BME280;56035;37.534;-122.308;2023-02-16T09:37:52;102295.09;;;-0.12;100.00
68986;BME280;56035;37.534;-122.308;2023-02-16T09:40:18;102297.91;;;-0.14;100.00
68986;BME280;56035;37.534;-122.308;2023-02-16T09:42:58;102289.94;;;-0.15;100.00
68986;BME280;56035;37.534;-122.308;2023-02-16T09:45:30;102292.78;;;-0.17;100.00
68986;BME280;56035;37.534;-122.308;2023-02-16T09:48:00;102292.19;;;-0.20;100.00
68986;BME280;56035;37.534;-122.308;2023-02-16T09:50:28;102295.16;;;-0.24;100.00
68986;BME280;56035;37.534;-122.308;2023-02-16T09:52:58;102301.44;;;-0.23;100.00
68986;BME280;56035;37.534;-122.308;2023-02-16T09:55:45;102289.03;;;-0.26;100.00
68986;BME280;56035;37.534;-122.308;2023-02-16T09:58:27;102295.69;;;-0.30;100.00
68986;BME280;56035;37.534;-122.308;2023-02-16T10:01:10;102289.56;;;-0.32;100.00
68986;BME280;56035;37.534;-122.308;2023-02-16T10:09:16;102286.97;;;-0.33;100.00
68986;BME280;56035;37.534;-122.308;2023-02-16T10:17:37;102283.41;;;-0.34;100.00
68986;BME280;56035;37.534;-122.308;2023-02-16T10:20:17;102277.56;;;-0.39;100.00
68986;BME280;56035;37.534;-122.308;2023-02-16T10:22:54;102280.38;;;-0.40;100.00
68986;BME280;56035;37.534;-122.308;2023-02-16T10:25:48;102274.13;;;-0.41;100.00
68986;BME280;56035;37.534;-122.308;2023-02-16T10:28:21;102278.69;;;-0.41;100.00
68986;BME280;56035;37.534;-122.308;2023-02-16T10:31:01;102270.69;;;-0.43;100.00
68986;BME280;56035;37.534;-122.308;2023-02-16T10:33:41;102272.41;;;-0.42;100.00
68986;BME280;56035;37.534;-122.308;2023-02-16T10:36:22;102259.13;;;-0.45;100.00
68986;BME280;56035;37.534;-122.308;2023-02-16T10:39:07;102271.56;;;-0.42;100.00
68986;BME280;56035;37.534;-122.308;2023-02-16T10:41:39;102265.41;;;-0.44;100.00
68986;BME280;56035;37.534;-122.308;2023-02-16T10:44:33;102280.81;;;-0.45;100.00
68986;BME280;56035;37.534;-122.308;2023-02-16T10:47:03;102280.66;;;-0.43;100.00
68986;BME280;56035;37.534;-122.308;2023-02-16T10:49:31;102281.91;;;-0.48;100.00
68986;BME280;56035;37.534;-122.308;2023-02-16T10:52:01;102287.47;;;-0.49;100.00
68986;BME280;56035;37.534;-122.308;2023-02-16T10:54:30;102293.28;;;-0.54;100.00
68986;BME280;56035;37.534;-122.308;2023-02-16T10:57:23;102282.84;;;-0.58;100.00
68986;BME280;56035;37.534;-122.308;2023-02-16T10:59:52;102287.78;;;-0.63;100.00
68986;BME280;56035;37.534;-122.308;2023-02-16T11:02:45;102287.78;;;-0.63;100.00
68986;BME280;56035;37.534;-122.308;2023-02-16T11:05:33;102286.09;;;-0.64;100.00
68986;BME280;56035;37.534;-122.308;2023-02-16T11:08:01;102276.25;;;-0.65;100.00
68986;BME280;56035;37.534;-122.308;2023-02-16T11:10:47;102279.06;;;-0.67;100.00
68986;BME280;56035;37.534;-122.308;2023-02-16T11:13:34;102278.22;;;-0.67;100.00
68986;BME280;56035;37.534;-122.308;2023-02-16T11:16:17;102273.06;;;-0.71;100.00
68986;BME280;56035;37.534;-122.308;2023-02-16T11:18:54;102275.50;;;-0.67;100.00
68986;BME280;56035;37.534;-122.308;2023-02-16T11:21:53;102273.06;;;-0.71;100.00
68986;BME280;56035;37.534;-122.308;2023-02-16T11:24:33;102270.63;;;-0.74;100.00
68986;BME280;56035;37.534;-122.308;2023-02-16T11:27:18;102266.59;;;-0.79;100.00
68986;BME280;56035;37.534;-122.308;2023-02-16T11:29:44;102272.41;;;-0.84;100.00
68986;BME280;56035;37.534;-122.308;2023-02-16T11:32:13;102272.41;;;-0.84;100.00
68986;BME280;56035;37.534;-122.308;2023-02-16T11:34:40;102266.72;;;-0.81;100.00
68986;BME280;56035;37.534;-122.308;2023-02-16T11:37:30;102265.03;;;-0.82;100.00
68986;BME280;56035;37.534;-122.308;2023-02-16T11:40:12;102261.44;;;-0.82;100.00
68986;BME280;56035;37.534;-122.308;2023-02-16T11:42:48;102268.69;;;-0.83;100.00
68986;BME280;56035;37.534;-122.308;2023-02-16T11:47:54;102258.13;;;-0.86;100.00
68986;BME280;56035;37.534;-122.308;2023-02-16T11:50:24;102256.44;;;-0.87;100.00
68986;BME280;56035;37.534;-122.308;2023-02-16T11:53:22;102262.59;;;-0.85;100.00
68986;BME280;56035;37.534;-122.308;2023-02-16T11:55:49;102259.13;;;-0.87;100.00
68986;BME280;56035;37.534;-122.308;2023-02-16T12:01:24;102249.06;;;-0.85;100.00
68986;BME280;56035;37.534;-122.308;2023-02-16T12:06:54;102239.19;;;-0.86;100.00
68986;BME280;56035;37.534;-122.308;2023-02-16T12:17:24;102218.72;;;-0.79;100.00
68986;BME280;56035;37.534;-122.308;2023-02-16T12:20:02;102228.84;;;-0.81;100.00
68986;BME280;56035;37.534;-122.308;2023-02-16T12:22:45;102226.00;;;-0.79;100.00
68986;BME280;56035;37.534;-122.308;2023-02-16T12:25:24;102230.44;;;-0.78;100.00
68986;BME280;56035;37.534;-122.308;2023-02-16T12:27:59;102230.44;;;-0.78;100.00
68986;BME280;56035;37.534;-122.308;2023-02-16T12:30:38;102238.16;;;-0.74;100.00
68986;BME280;56035;37.534;-122.308;2023-02-16T12:36:11;102228.59;;;-0.78;100.00
68986;BME280;56035;37.534;-122.308;2023-02-16T12:39:11;102228.84;;;-0.81;100.00
68986;BME280;56035;37.534;-122.308;2023-02-16T12:44:38;102227.84;;;-0.80;100.00
68986;BME280;56035;37.534;-122.308;2023-02-16T12:47:12;102230.56;;;-0.80;100.00
68986;BME280;56035;37.534;-122.308;2023-02-16T12:50:00;102230.19;;;-0.75;100.00
68986;BME280;56035;37.534;-122.308;2023-02-16T12:58:15;102228.00;;;-0.81;100.00
68986;BME280;56035;37.534;-122.308;2023-02-16T13:03:55;102238.88;;;-0.72;100.00
68986;BME280;56035;37.534;-122.308;2023-02-16T13:06:35;102236.19;;;-0.72;100.00
68986;BME280;56035;37.534;-122.308;2023-02-16T13:12:20;102243.31;;;-0.71;100.00
68986;BME280;56035;37.534;-122.308;2023-02-16T13:14:43;102243.78;;;-0.65;100.00
68986;BME280;56035;37.534;-122.308;2023-02-16T13:17:14;102243.78;;;-0.65;100.00
68986;BME280;56035;37.534;-122.308;2023-02-16T13:19:43;102245.75;;;-0.67;100.00
68986;BME280;56035;37.534;-122.308;2023-02-16T13:25:51;102251.00;;;-0.66;100.00
68986;BME280;56035;37.534;-122.308;2023-02-16T13:27:56;102254.13;;;-0.71;100.00
68986;BME280;56035;37.534;-122.308;2023-02-16T13:36:26;102262.25;;;-0.71;100.00
68986;BME280;56035;37.534;-122.308;2023-02-16T13:42:32;102256.56;;;-0.67;100.00
68986;BME280;56035;37.534;-122.308;2023-02-16T13:45:24;102257.56;;;-0.68;100.00
68986;BME280;56035;37.534;-122.308;2023-02-16T13:47:50;102253.13;;;-0.69;100.00
68986;BME280;56035;37.534;-122.308;2023-02-16T13:52:48;102259.53;;;-0.71;100.00
68986;BME280;56035;37.534;-122.308;2023-02-16T13:55:33;102267.66;;;-0.71;100.00
68986;BME280;56035;37.534;-122.308;2023-02-16T14:00:45;102264.22;;;-0.73;100.00
68986;BME280;56035;37.534;-122.308;2023-02-16T14:05:48;102265.81;;;-0.70;100.00
68986;BME280;56035;37.534;-122.308;2023-02-16T14:13:33;102260.53;;;-0.72;100.00
68986;BME280;56035;37.534;-122.308;2023-02-16T14:21:29;102258.81;;;-0.73;100.00
68986;BME280;56035;37.534;-122.308;2023-02-16T14:23:58;102257.94;;;-0.73;100.00
68986;BME280;56035;37.534;-122.308;2023-02-16T14:26:25;102248.97;;;-0.74;100.00
68986;BME280;56035;37.534;-122.308;2023-02-16T14:29:23;102265.22;;;-0.74;100.00
68986;BME280;56035;37.534;-122.308;2023-02-16T14:32:05;102263.78;;;-0.78;100.00
68986;BME280;56035;37.534;-122.308;2023-02-16T14:34:38;102256.03;;;-0.82;100.00
68986;BME280;56035;37.534;-122.308;2023-02-16T14:39:48;102269.97;;;-0.87;100.00